createdAt,value
2022-12-18T00:01:22.489Z,2.60
2022-12-18T00:04:23.032Z,2.40
2022-12-18T00:07:13.967Z,4.40
2022-12-18T00:10:04.297Z,2.20
2022-12-18T00:12:54.475Z,2.30
2022-12-18T00:15:44.905Z,2.60
2022-12-18T00:18:36.118Z,2.40
2022-12-18T00:21:27.728Z,2.20
2022-12-18T00:24:20.232Z,2.00
2022-12-18T00:27:11.520Z,2.40
2022-12-18T00:30:01.978Z,2.30
2022-12-18T00:32:52.171Z,2.20
2022-12-18T00:35:41.906Z,2.10
2022-12-18T00:38:34.337Z,2.60
2022-12-18T00:41:38.585Z,1.30
2022-12-18T00:44:28.656Z,2.10
2022-12-18T00:47:19.035Z,1.80
2022-12-18T00:50:11.507Z,2.60
2022-12-18T00:53:01.677Z,2.50
2022-12-18T00:55:52.577Z,1.30
2022-12-18T00:58:43.033Z,1.60
2022-12-18T01:01:35.027Z,3.50
2022-12-18T01:04:25.272Z,3.00
2022-12-18T01:07:15.526Z,2.10
2022-12-18T01:10:06.111Z,1.60
2022-12-18T01:12:56.304Z,2.60
2022-12-18T01:15:51.996Z,2.80
2022-12-18T01:18:42.572Z,2.40
2022-12-18T01:21:33.307Z,2.90
2022-12-18T01:24:27.495Z,2.80
2022-12-18T01:27:19.412Z,4.80
2022-12-18T01:30:13.203Z,3.20
2022-12-18T01:33:03.294Z,3.10
2022-12-18T01:35:54.430Z,2.30
2022-12-18T01:38:45.458Z,2.70
2022-12-18T01:41:50.139Z,3.70
2022-12-18T01:45:06.394Z,2.70
2022-12-18T01:47:58.853Z,2.50
2022-12-18T01:50:51.208Z,2.50
2022-12-18T01:53:43.977Z,3.80
2022-12-18T01:56:35.092Z,3.40
2022-12-18T01:59:27.034Z,2.80
2022-12-18T02:02:18.511Z,3.50
2022-12-18T02:05:11.462Z,2.70
2022-12-18T02:08:13.280Z,2.50
2022-12-18T02:11:10.730Z,3.20
2022-12-18T02:14:10.405Z,3.10
2022-12-18T02:17:07.339Z,2.40
2022-12-18T02:20:11.067Z,3.10
2022-12-18T02:23:14.737Z,2.80
2022-12-18T02:26:15.512Z,3.40
2022-12-18T02:29:11.945Z,3.00
2022-12-18T02:32:03.673Z,3.00
2022-12-18T02:34:55.359Z,2.60
2022-12-18T02:37:49.246Z,3.00
2022-12-18T02:40:40.692Z,2.20
2022-12-18T02:43:34.219Z,3.20
2022-12-18T02:46:37.322Z,2.90
2022-12-18T02:49:42.643Z,3.00
2022-12-18T02:52:44.653Z,3.30
2022-12-18T02:55:45.867Z,2.50
2022-12-18T02:58:47.868Z,3.70
2022-12-18T03:01:53.430Z,4.80
2022-12-18T03:04:50.637Z,3.30
2022-12-18T03:07:44.631Z,4.00
2022-12-18T03:10:39.583Z,4.40
2022-12-18T03:13:34.195Z,4.90
2022-12-18T03:16:28.802Z,4.60
2022-12-18T03:19:23.832Z,5.00
2022-12-18T03:22:15.691Z,5.80
2022-12-18T03:25:13.121Z,5.60
2022-12-18T03:28:09.726Z,5.10
2022-12-18T03:31:03.922Z,5.30
2022-12-18T03:34:00.303Z,6.40
2022-12-18T03:36:59.094Z,5.50
2022-12-18T03:39:53.519Z,6.40
2022-12-18T03:42:51.705Z,5.70
2022-12-18T03:45:49.601Z,6.20
2022-12-18T03:48:46.731Z,6.50
2022-12-18T03:51:43.095Z,5.70
2022-12-18T03:54:35.925Z,6.60
2022-12-18T03:57:34.819Z,5.60
2022-12-18T04:00:28.641Z,6.60
2022-12-18T04:03:26.701Z,5.50
2022-12-18T04:06:19.716Z,6.40
2022-12-18T04:09:12.184Z,5.20
2022-12-18T04:12:07.299Z,6.00
2022-12-18T04:14:58.833Z,6.20
2022-12-18T04:17:52.250Z,6.10
2022-12-18T04:20:45.591Z,6.30
2022-12-18T04:23:36.157Z,5.60
2022-12-18T04:26:26.625Z,6.50
2022-12-18T04:29:29.943Z,7.40
2022-12-18T04:32:20.771Z,6.60
2022-12-18T04:35:13.101Z,5.10
2022-12-18T04:38:05.918Z,5.20
2022-12-18T04:40:56.693Z,4.70
2022-12-18T04:43:50.814Z,6.20
2022-12-18T04:46:41.255Z,6.00
2022-12-18T04:49:31.580Z,5.20
2022-12-18T04:52:25.849Z,4.90
2022-12-18T04:55:15.827Z,5.40
2022-12-18T04:58:06.176Z,5.10
2022-12-18T05:00:57.490Z,5.20
2022-12-18T05:03:47.453Z,5.70
2022-12-18T05:06:37.866Z,5.90
2022-12-18T05:09:28.700Z,5.60
2022-12-18T05:12:20.282Z,6.00
2022-12-18T05:15:12.575Z,5.00
2022-12-18T05:18:04.739Z,6.00
2022-12-18T05:20:55.559Z,5.60
2022-12-18T05:23:45.700Z,5.20
2022-12-18T05:26:35.640Z,5.50
2022-12-18T05:29:26.212Z,5.90
2022-12-18T05:32:16.636Z,6.10
2022-12-18T05:35:09.226Z,6.20
2022-12-18T05:38:00.611Z,6.10
2022-12-18T05:40:52.049Z,6.00
2022-12-18T05:43:43.446Z,6.50
2022-12-18T05:46:34.124Z,5.90
2022-12-18T05:49:24.614Z,6.30
2022-12-18T05:52:15.119Z,6.50
2022-12-18T05:55:06.158Z,6.90
2022-12-18T05:57:56.478Z,7.60
2022-12-18T06:00:48.094Z,6.50
2022-12-18T06:03:38.597Z,6.80
2022-12-18T06:06:30.554Z,7.40
2022-12-18T06:09:22.217Z,7.10
2022-12-18T06:12:14.403Z,6.30
2022-12-18T06:15:05.682Z,6.10
2022-12-18T06:17:56.086Z,6.30
2022-12-18T06:20:46.192Z,7.00
2022-12-18T06:23:37.018Z,6.70
2022-12-18T06:26:28.667Z,5.90
2022-12-18T06:29:19.424Z,6.20
2022-12-18T06:32:10.353Z,6.00
2022-12-18T06:35:00.579Z,5.10
2022-12-18T06:37:50.869Z,6.40
2022-12-18T06:40:42.488Z,4.80
2022-12-18T06:43:32.614Z,4.80
2022-12-18T06:46:23.193Z,5.00
2022-12-18T06:49:13.648Z,5.40
2022-12-18T06:52:04.325Z,3.70
2022-12-18T06:54:54.865Z,4.60
2022-12-18T06:57:45.258Z,5.00
2022-12-18T07:00:36.295Z,4.40
2022-12-18T07:03:27.148Z,5.70
2022-12-18T07:06:21.014Z,4.30
2022-12-18T07:09:12.419Z,5.00
2022-12-18T07:12:03.064Z,4.60
2022-12-18T07:14:53.355Z,3.30
2022-12-18T07:17:43.834Z,10.10
2022-12-18T07:20:33.873Z,5.70
2022-12-18T07:23:23.807Z,7.60
2022-12-18T07:26:15.699Z,5.80
2022-12-18T07:29:06.005Z,3.70
2022-12-18T07:31:56.407Z,4.30
2022-12-18T07:34:46.628Z,4.20
2022-12-18T07:37:37.804Z,4.40
2022-12-18T07:40:28.993Z,4.00
2022-12-18T07:43:20.124Z,4.70
2022-12-18T07:46:13.160Z,3.20
2022-12-18T07:49:03.871Z,2.50
2022-12-18T07:51:53.661Z,3.10
2022-12-18T07:54:44.226Z,2.60
2022-12-18T07:57:50.137Z,5.30
2022-12-18T08:00:41.586Z,2.90
2022-12-18T08:03:33.117Z,2.80
2022-12-18T08:06:24.657Z,3.40
2022-12-18T08:09:18.311Z,3.90
2022-12-18T08:12:10.670Z,3.20
2022-12-18T08:15:01.403Z,2.90
2022-12-18T08:17:51.458Z,2.70
2022-12-18T08:20:41.773Z,2.70
2022-12-18T08:23:32.058Z,3.00
2022-12-18T08:26:23.409Z,2.80
2022-12-18T08:29:17.331Z,3.30
2022-12-18T08:32:12.412Z,3.30
2022-12-18T08:35:03.057Z,4.60
2022-12-18T08:37:53.089Z,4.00
2022-12-18T08:40:43.459Z,2.40
2022-12-18T08:43:51.712Z,2.80
2022-12-18T08:46:44.255Z,2.50
2022-12-18T08:49:34.658Z,3.90
2022-12-18T08:52:24.747Z,11.80
2022-12-18T08:55:16.159Z,39.10
2022-12-18T08:58:07.212Z,18.90
2022-12-18T09:01:01.773Z,24.00
2022-12-18T09:03:52.593Z,13.80
2022-12-18T09:06:43.263Z,8.30
2022-12-18T09:09:33.952Z,3.70
2022-12-18T09:12:25.757Z,4.50
2022-12-18T09:15:19.395Z,3.10
2022-12-18T09:18:11.752Z,4.00
2022-12-18T09:21:02.556Z,3.80
2022-12-18T09:23:55.129Z,2.50
2022-12-18T09:26:47.172Z,4.90
2022-12-18T09:29:38.024Z,3.20
2022-12-18T09:32:28.247Z,3.70
2022-12-18T09:35:19.429Z,2.70
2022-12-18T09:38:11.105Z,3.10
2022-12-18T09:41:07.227Z,3.00
2022-12-18T09:44:01.066Z,2.50
2022-12-18T09:46:55.924Z,4.00
2022-12-18T09:49:48.043Z,2.60
2022-12-18T09:52:42.251Z,2.70
2022-12-18T09:55:37.700Z,2.70
2022-12-18T09:58:36.661Z,2.40
2022-12-18T10:01:36.365Z,2.50
2022-12-18T10:04:35.301Z,2.30
2022-12-18T10:07:36.375Z,2.60
2022-12-18T10:10:40.821Z,2.20
2022-12-18T10:13:38.050Z,2.80
2022-12-18T10:16:34.463Z,2.60
2022-12-18T10:19:37.167Z,2.50
2022-12-18T10:22:42.090Z,3.20
2022-12-18T10:25:38.819Z,2.70
2022-12-18T10:28:31.785Z,3.10
2022-12-18T10:31:24.817Z,2.80
2022-12-18T10:34:23.270Z,3.50
2022-12-18T10:37:20.640Z,3.70
2022-12-18T10:40:22.413Z,8.20
2022-12-18T10:43:17.473Z,7.60
2022-12-18T10:46:17.165Z,4.40
2022-12-18T10:49:08.064Z,3.90
2022-12-18T10:52:10.046Z,2.30
2022-12-18T10:55:04.414Z,3.60
2022-12-18T10:57:55.436Z,4.30
2022-12-18T11:00:45.842Z,7.60
2022-12-18T11:03:39.286Z,3.50
2022-12-18T11:06:30.558Z,3.80
2022-12-18T11:09:26.812Z,2.70
2022-12-18T11:12:22.544Z,2.60
2022-12-18T11:15:22.461Z,3.40
2022-12-18T11:18:22.289Z,2.80
2022-12-18T11:21:16.011Z,2.50
2022-12-18T11:24:08.711Z,3.60
2022-12-18T11:27:00.131Z,4.20
2022-12-18T11:29:54.013Z,4.80
2022-12-18T11:32:47.333Z,4.60
2022-12-18T11:35:48.128Z,5.30
2022-12-18T11:38:40.974Z,3.90
2022-12-18T11:41:54.962Z,4.60
2022-12-18T11:44:53.518Z,3.50
2022-12-18T11:47:48.721Z,4.10
2022-12-18T11:50:48.681Z,3.90
2022-12-18T11:53:41.092Z,3.40
2022-12-18T11:56:37.583Z,6.30
2022-12-18T11:59:37.766Z,2.40
2022-12-18T12:02:45.054Z,3.70
2022-12-18T12:05:47.525Z,3.50
2022-12-18T12:12:08.432Z,3.40
2022-12-18T12:15:13.374Z,4.30
2022-12-18T12:18:16.447Z,4.60
2022-12-18T12:21:20.569Z,3.90
2022-12-18T12:24:29.560Z,4.50
2022-12-18T12:27:26.353Z,4.20
2022-12-18T12:30:23.574Z,3.50
2022-12-18T12:33:26.629Z,5.20
2022-12-18T12:36:25.824Z,3.70
2022-12-18T12:39:22.706Z,5.40
2022-12-18T12:42:39.613Z,4.50
2022-12-18T12:45:38.453Z,3.80
2022-12-18T12:48:43.393Z,4.40
2022-12-18T12:51:38.144Z,4.00
2022-12-18T12:54:30.743Z,4.60
2022-12-18T12:57:26.546Z,4.20
2022-12-18T13:00:21.518Z,4.20
2022-12-18T13:03:22.411Z,5.50
2022-12-18T13:06:21.204Z,4.50
2022-12-18T13:09:12.518Z,4.20
2022-12-18T13:12:30.589Z,5.90
2022-12-18T13:15:36.714Z,5.00
2022-12-18T13:18:30.313Z,4.00
2022-12-18T13:21:28.103Z,5.10
2022-12-18T13:24:28.568Z,4.30
2022-12-18T13:27:49.991Z,5.20
2022-12-18T13:30:55.084Z,4.30
2022-12-18T13:34:25.141Z,3.80
2022-12-18T13:37:21.143Z,3.70
2022-12-18T13:40:42.607Z,3.10
2022-12-18T13:43:44.033Z,4.60
2022-12-18T13:46:47.175Z,2.90
2022-12-18T13:49:41.826Z,2.80
2022-12-18T13:52:39.575Z,5.90
2022-12-18T13:55:30.377Z,3.50
2022-12-18T13:58:20.970Z,4.10
2022-12-18T14:01:26.080Z,3.50
2022-12-18T14:04:28.205Z,4.60
2022-12-18T14:07:21.837Z,4.90
2022-12-18T14:10:47.730Z,3.70
2022-12-18T14:13:33.413Z,4.90
2022-12-18T14:16:24.843Z,5.50
2022-12-18T14:19:22.174Z,6.00
2022-12-18T14:22:18.704Z,6.00
2022-12-18T14:25:19.800Z,4.80
2022-12-18T14:28:18.244Z,5.10
2022-12-18T14:31:22.330Z,5.30
2022-12-18T14:34:20.352Z,5.90
2022-12-18T14:37:15.510Z,4.50
2022-12-18T14:40:15.150Z,4.70
2022-12-18T14:43:06.156Z,4.00
2022-12-18T14:45:57.336Z,3.60
2022-12-18T14:48:51.895Z,4.20
2022-12-18T14:51:49.720Z,3.90
2022-12-18T14:54:41.855Z,3.20
2022-12-18T14:57:38.933Z,3.50
2022-12-18T15:00:33.304Z,3.50
2022-12-18T15:03:27.773Z,3.40
2022-12-18T15:06:31.439Z,4.60
2022-12-18T15:09:28.247Z,3.10
2022-12-18T15:12:35.622Z,4.00
2022-12-18T15:15:49.624Z,4.40
2022-12-18T15:18:47.314Z,4.10
2022-12-18T15:21:37.523Z,3.50
2022-12-18T15:24:33.263Z,3.70
2022-12-18T15:27:33.621Z,4.00
2022-12-18T15:30:26.979Z,4.70
2022-12-18T15:33:29.651Z,6.40
2022-12-18T15:36:25.518Z,8.00
2022-12-18T15:39:18.211Z,8.30
2022-12-18T15:42:30.112Z,6.50
2022-12-18T15:45:21.078Z,7.60
2022-12-18T15:48:24.878Z,6.40
2022-12-18T15:51:19.588Z,6.10
2022-12-18T15:54:15.622Z,6.00
2022-12-18T15:57:23.543Z,5.60
2022-12-18T16:00:17.521Z,4.90
2022-12-18T16:03:08.977Z,5.90
2022-12-18T16:06:04.261Z,6.20
2022-12-18T16:08:54.824Z,5.00
2022-12-18T16:11:48.714Z,4.90
2022-12-18T16:14:38.834Z,5.60
2022-12-18T16:17:29.918Z,4.20
2022-12-18T16:20:23.034Z,3.60
2022-12-18T16:23:13.489Z,4.70
2022-12-18T16:26:05.767Z,5.30
2022-12-18T16:28:56.849Z,5.00
2022-12-18T16:31:47.936Z,4.60
2022-12-18T16:34:38.928Z,5.60
2022-12-18T16:37:29.964Z,5.20
2022-12-18T16:40:22.210Z,4.50
2022-12-18T16:43:13.521Z,6.90
2022-12-18T16:46:04.090Z,9.60
2022-12-18T16:48:55.104Z,7.50
2022-12-18T16:51:45.617Z,7.10
2022-12-18T16:54:37.108Z,9.90
2022-12-18T16:57:28.525Z,11.30
2022-12-18T17:00:20.938Z,8.40
2022-12-18T17:03:13.631Z,8.10
2022-12-18T17:06:07.836Z,8.90
2022-12-18T17:09:00.544Z,9.20
2022-12-18T17:11:51.273Z,7.40
2022-12-18T17:14:42.084Z,9.80
2022-12-18T17:17:32.700Z,7.90
2022-12-18T17:20:23.626Z,6.20
2022-12-18T17:23:18.624Z,6.10
2022-12-18T17:26:10.686Z,6.30
2022-12-18T17:29:01.995Z,6.60
2022-12-18T17:31:52.527Z,8.00
2022-12-18T17:34:43.953Z,6.30
2022-12-18T17:37:34.457Z,6.40
2022-12-18T17:40:25.019Z,6.40
2022-12-18T17:43:15.753Z,6.80
2022-12-18T17:46:08.323Z,7.00
2022-12-18T17:49:01.215Z,6.00
2022-12-18T17:51:51.815Z,7.10
2022-12-18T17:54:44.086Z,6.00
2022-12-18T17:57:34.784Z,6.10
2022-12-18T18:00:26.202Z,6.30
2022-12-18T18:03:16.976Z,5.50
2022-12-18T18:06:09.409Z,5.50
2022-12-18T18:09:00.333Z,5.70
2022-12-18T18:12:08.476Z,5.80
2022-12-18T18:15:00.659Z,5.80
2022-12-18T18:17:51.662Z,5.60
2022-12-18T18:20:44.036Z,5.70
2022-12-18T18:23:34.893Z,6.00
2022-12-18T18:26:25.401Z,5.60
2022-12-18T18:29:21.342Z,6.20
2022-12-18T18:32:13.771Z,6.10
2022-12-18T18:35:04.051Z,5.40
2022-12-18T18:37:54.639Z,6.10
2022-12-18T18:40:44.248Z,6.00
2022-12-18T18:43:35.228Z,5.60
2022-12-18T18:46:26.338Z,6.40
2022-12-18T18:49:17.233Z,5.70
2022-12-18T18:52:08.572Z,5.40
2022-12-18T18:55:12.898Z,4.70
2022-12-18T18:58:04.504Z,5.00
2022-12-18T19:01:02.402Z,4.30
2022-12-18T19:03:54.422Z,5.20
2022-12-18T19:06:46.820Z,5.00
2022-12-18T19:09:38.381Z,5.30
2022-12-18T19:12:46.221Z,4.90
2022-12-18T19:15:37.024Z,5.40
2022-12-18T19:18:27.574Z,5.20
2022-12-18T19:21:19.166Z,5.10
2022-12-18T19:24:11.056Z,5.00
2022-12-18T19:27:02.130Z,5.50
2022-12-18T19:29:52.359Z,6.40
2022-12-18T19:32:43.190Z,6.40
2022-12-18T19:35:34.027Z,5.20
2022-12-18T19:38:24.839Z,5.40
2022-12-18T19:41:16.474Z,5.40
2022-12-18T19:44:08.733Z,6.00
2022-12-18T19:47:01.210Z,5.30
2022-12-18T19:49:52.279Z,6.10
2022-12-18T19:52:42.290Z,5.60
2022-12-18T19:55:32.656Z,6.20
2022-12-18T19:58:22.955Z,5.70
2022-12-18T20:01:16.787Z,5.20
2022-12-18T20:04:08.470Z,6.00
2022-12-18T20:06:59.545Z,5.70
2022-12-18T20:09:55.328Z,6.90
2022-12-18T20:12:50.812Z,6.90
2022-12-18T20:15:45.142Z,7.50
2022-12-18T20:18:38.591Z,6.50
2022-12-18T20:21:29.503Z,7.90
2022-12-18T20:24:20.249Z,6.70
2022-12-18T20:27:16.175Z,6.90
2022-12-18T20:30:11.248Z,7.80
2022-12-18T20:33:01.780Z,7.00
2022-12-18T20:35:52.236Z,8.40
2022-12-18T20:38:43.703Z,7.90
2022-12-18T20:41:38.215Z,7.30
2022-12-18T20:44:30.023Z,6.70
2022-12-18T20:47:20.740Z,7.10
2022-12-18T20:50:12.096Z,7.10
2022-12-18T20:53:02.547Z,6.60
2022-12-18T20:55:52.989Z,6.70
2022-12-18T20:58:43.466Z,6.00
2022-12-18T21:01:34.964Z,7.60
2022-12-18T21:04:27.240Z,6.60
2022-12-18T21:07:20.254Z,6.70
2022-12-18T21:10:13.153Z,8.00
2022-12-18T21:13:05.979Z,6.30
2022-12-18T21:15:57.705Z,7.40
2022-12-18T21:18:48.134Z,7.00
2022-12-18T21:21:38.872Z,7.90
2022-12-18T21:24:30.594Z,8.10
2022-12-18T21:27:23.668Z,7.40
2022-12-18T21:30:17.451Z,7.70
2022-12-18T21:33:09.499Z,7.40
2022-12-18T21:35:59.989Z,8.80
2022-12-18T21:38:51.198Z,9.40
2022-12-18T21:42:00.339Z,8.90
2022-12-18T21:44:51.936Z,8.10
2022-12-18T21:47:42.194Z,8.20
2022-12-18T21:50:32.512Z,6.50
2022-12-18T21:53:23.403Z,6.70
2022-12-18T21:56:14.048Z,7.50
2022-12-18T21:59:04.241Z,7.20
2022-12-18T22:01:56.563Z,6.70
2022-12-18T22:04:47.788Z,5.90
2022-12-18T22:07:38.227Z,6.40
2022-12-18T22:10:29.090Z,6.10
2022-12-18T22:13:19.490Z,6.50
2022-12-18T22:16:10.740Z,6.30
2022-12-18T22:19:01.098Z,6.50
2022-12-18T22:21:52.059Z,6.40
2022-12-18T22:24:42.771Z,6.00
2022-12-18T22:27:33.002Z,5.70
2022-12-18T22:30:23.695Z,4.60
2022-12-18T22:33:14.525Z,5.20
2022-12-18T22:36:10.922Z,5.60
2022-12-18T22:39:01.576Z,6.40
2022-12-18T22:41:52.571Z,6.20
2022-12-18T22:44:43.181Z,5.80
2022-12-18T22:47:33.285Z,5.00
2022-12-18T22:50:23.485Z,4.50
2022-12-18T22:53:13.639Z,5.10
2022-12-18T22:56:08.142Z,4.00
2022-12-18T22:58:58.528Z,3.70
2022-12-18T23:01:49.889Z,4.30
2022-12-18T23:04:41.666Z,5.40
2022-12-18T23:07:32.030Z,4.50
2022-12-18T23:10:22.937Z,4.80
2022-12-18T23:13:13.208Z,4.40
2022-12-18T23:16:05.340Z,4.60
2022-12-18T23:18:58.259Z,4.40
2022-12-18T23:21:49.323Z,5.50
2022-12-18T23:24:39.793Z,4.40
2022-12-18T23:27:30.322Z,5.20
2022-12-18T23:30:21.098Z,4.70
2022-12-18T23:33:11.772Z,5.10
2022-12-18T23:36:04.168Z,4.10
2022-12-18T23:38:56.772Z,5.00
2022-12-18T23:41:49.423Z,6.70
2022-12-18T23:44:39.755Z,4.90
2022-12-18T23:47:30.809Z,5.70
2022-12-18T23:50:28.827Z,4.80
2022-12-18T23:53:20.527Z,4.20
2022-12-18T23:56:12.382Z,4.40
2022-12-18T23:59:02.961Z,4.10
